sensor_id;sensor_type;location;lat;lon;timestamp;pressure;altitude;pressure_sealevel;temperature;humidity
70445;BME280;57902;49.638;11.070;2023-02-12T00:01:34;100207.50;;;2.08;100.00
70445;BME280;57902;49.638;11.070;2023-02-12T00:04:01;100204.94;;;2.08;100.00
70445;BME280;57902;49.638;11.070;2023-02-12T00:06:27;100199.81;;;2.06;100.00
70445;BME280;57902;49.638;11.070;2023-02-12T00:08:56;100193.03;;;2.07;100.00
70445;BME280;57902;49.638;11.070;2023-02-12T00:11:28;100192.13;;;2.05;100.00
70445;BME280;57902;49.638;11.070;2023-02-12T00:13:56;100194.63;;;2.03;100.00
70445;BME280;57902;49.638;11.070;2023-02-12T00:16:25;100200.56;;;2.04;100.00
70445;BME280;57902;49.638;11.070;2023-02-12T00:18:54;100197.22;;;2.05;100.00
70445;BME280;57902;49.638;11.070;2023-02-12T00:21:21;100189.53;;;2.03;100.00
70445;BME280;57902;49.638;11.070;2023-02-12T00:23:48;100198.91;;;2.04;100.00
70445;BME280;57902;49.638;11.070;2023-02-12T00:26:17;100202.31;;;2.05;100.00
70445;BME280;57902;49.638;11.070;2023-02-12T00:28:44;100215.06;;;2.06;100.00
70445;BME280;57902;49.638;11.070;2023-02-12T00:31:14;100222.75;;;2.08;100.00
70445;BME280;57902;49.638;11.070;2023-02-12T00:33:41;100216.91;;;2.10;100.00
70445;BME280;57902;49.638;11.070;2023-02-12T00:36:08;100223.69;;;2.10;100.00
70445;BME280;57902;49.638;11.070;2023-02-12T00:38:38;100227.91;;;2.09;100.00
70445;BME280;57902;49.638;11.070;2023-02-12T00:41:05;100223.69;;;2.10;100.00
70445;BME280;57902;49.638;11.070;2023-02-12T00:43:31;100227.09;;;2.10;100.00
70445;BME280;57902;49.638;11.070;2023-02-12T00:45:58;100226.25;;;2.10;100.00
70445;BME280;57902;49.638;11.070;2023-02-12T00:48:25;100229.69;;;2.12;100.00
70445;BME280;57902;49.638;11.070;2023-02-12T00:50:51;100224.66;;;2.14;100.00
70445;BME280;57902;49.638;11.070;2023-02-12T00:53:18;100217.81;;;2.13;100.00
70445;BME280;57902;49.638;11.070;2023-02-12T00:55:44;100222.97;;;2.14;100.00
70445;BME280;57902;49.638;11.070;2023-02-12T00:58:11;100225.50;;;2.14;100.00
70445;BME280;57902;49.638;11.070;2023-02-12T01:00:38;100220.44;;;2.14;100.00
70445;BME280;57902;49.638;11.070;2023-02-12T01:03:06;100225.50;;;2.14;100.00
70445;BME280;57902;49.638;11.070;2023-02-12T01:05:33;100220.44;;;2.14;100.00
70445;BME280;57902;49.638;11.070;2023-02-12T01:07:59;100231.66;;;2.19;100.00
70445;BME280;57902;49.638;11.070;2023-02-12T01:10:26;100219.78;;;2.20;100.00
70445;BME280;57902;49.638;11.070;2023-02-12T01:12:53;100216.38;;;2.19;100.00
70445;BME280;57902;49.638;11.070;2023-02-12T01:15:19;100219.09;;;2.24;100.00
70445;BME280;57902;49.638;11.070;2023-02-12T01:17:46;100221.56;;;2.22;100.00
70445;BME280;57902;49.638;11.070;2023-02-12T01:20:15;100216.44;;;2.21;100.00
70445;BME280;57902;49.638;11.070;2023-02-12T01:22:47;100216.44;;;2.21;100.00
70445;BME280;57902;49.638;11.070;2023-02-12T01:25:14;100218.94;;;2.19;100.00
70445;BME280;57902;49.638;11.070;2023-02-12T01:27:43;100216.44;;;2.21;100.00
70445;BME280;57902;49.638;11.070;2023-02-12T01:30:14;100219.72;;;2.18;100.00
70445;BME280;57902;49.638;11.070;2023-02-12T01:32:47;100218.22;;;2.23;100.00
70445;BME280;57902;49.638;11.070;2023-02-12T01:35:13;100216.50;;;2.22;100.00
70445;BME280;57902;49.638;11.070;2023-02-12T01:37:40;100223.25;;;2.22;100.00
70445;BME280;57902;49.638;11.070;2023-02-12T01:40:07;100218.19;;;2.22;100.00
70445;BME280;57902;49.638;11.070;2023-02-12T01:42:34;100214.78;;;2.23;100.00
70445;BME280;57902;49.638;11.070;2023-02-12T01:47:44;100206.31;;;2.22;100.00
70445;BME280;57902;49.638;11.070;2023-02-12T01:50:14;100217.28;;;2.21;100.00
70445;BME280;57902;49.638;11.070;2023-02-12T01:52:49;100208.75;;;2.19;100.00
70445;BME280;57902;49.638;11.070;2023-02-12T01:55:18;100213.03;;;2.20;100.00
70445;BME280;57902;49.638;11.070;2023-02-12T01:57:46;100216.44;;;2.21;100.00
70445;BME280;57902;49.638;11.070;2023-02-12T02:00:16;100212.19;;;2.21;100.00
70445;BME280;57902;49.638;11.070;2023-02-12T02:02:45;100211.41;;;2.22;100.00
70445;BME280;57902;49.638;11.070;2023-02-12T02:05:19;100216.50;;;2.22;100.00
70445;BME280;57902;49.638;11.070;2023-02-12T02:07:48;100219.84;;;2.21;100.00
70445;BME280;57902;49.638;11.070;2023-02-12T02:10:14;100213.09;;;2.22;100.00
70445;BME280;57902;49.638;11.070;2023-02-12T02:12:43;100220.78;;;2.23;100.00
70445;BME280;57902;49.638;11.070;2023-02-12T02:15:29;100214.94;;;2.27;100.00
70445;BME280;57902;49.638;11.070;2023-02-12T02:21:09;100215.72;;;2.25;100.00
70445;BME280;57902;49.638;11.070;2023-02-12T02:31:51;100215.78;;;2.26;100.00
70445;BME280;57902;49.638;11.070;2023-02-12T02:34:31;100214.94;;;2.27;100.00
70445;BME280;57902;49.638;11.070;2023-02-12T02:37:20;100214.94;;;2.27;100.00
70445;BME280;57902;49.638;11.070;2023-02-12T02:40:10;100210.00;;;2.31;100.00
70445;BME280;57902;49.638;11.070;2023-02-12T02:42:44;100214.25;;;2.32;100.00
70445;BME280;57902;49.638;11.070;2023-02-12T02:50:38;100221.19;;;2.36;100.00
70445;BME280;57902;49.638;11.070;2023-02-12T02:53:12;100224.53;;;2.35;100.00
70445;BME280;57902;49.638;11.070;2023-02-12T02:55:51;100222.88;;;2.35;100.00
70445;BME280;57902;49.638;11.070;2023-02-12T02:58:26;100217.91;;;2.38;100.00
70445;BME280;57902;49.638;11.070;2023-02-12T03:01:33;100222.88;;;2.35;100.00
70445;BME280;57902;49.638;11.070;2023-02-12T03:04:12;100222.81;;;2.34;100.00
70445;BME280;57902;49.638;11.070;2023-02-12T03:06:47;100218.59;;;2.34;100.00
70445;BME280;57902;49.638;11.070;2023-02-12T03:11:56;100221.13;;;2.34;100.00
70445;BME280;57902;49.638;11.070;2023-02-12T03:14:28;100223.69;;;2.34;100.00
70445;BME280;57902;49.638;11.070;2023-02-12T03:17:29;100222.88;;;2.35;100.00
70445;BME280;57902;49.638;11.070;2023-02-12T03:20:02;100227.09;;;2.35;100.00
70445;BME280;57902;49.638;11.070;2023-02-12T03:22:33;100225.38;;;2.34;100.00
70445;BME280;57902;49.638;11.070;2023-02-12T03:25:12;100234.66;;;2.33;100.00
70445;BME280;57902;49.638;11.070;2023-02-12T03:27:57;100238.91;;;2.33;100.00
70445;BME280;57902;49.638;11.070;2023-02-12T03:30:33;100236.41;;;2.34;100.00
70445;BME280;57902;49.638;11.070;2023-02-12T03:33:16;100238.94;;;2.34;100.00
70445;BME280;57902;49.638;11.070;2023-02-12T03:36:01;100248.28;;;2.34;100.00
70445;BME280;57902;49.638;11.070;2023-02-12T03:38:43;100243.19;;;2.34;100.00
70445;BME280;57902;49.638;11.070;2023-02-12T03:41:30;100249.94;;;2.33;100.00
70445;BME280;57902;49.638;11.070;2023-02-12T03:46:41;100248.16;;;2.31;100.00
70445;BME280;57902;49.638;11.070;2023-02-12T03:49:22;100245.72;;;2.34;100.00
70445;BME280;57902;49.638;11.070;2023-02-12T03:51:52;100250.81;;;2.34;100.00
70445;BME280;57902;49.638;11.070;2023-02-12T03:54:20;100244.84;;;2.33;100.00
70445;BME280;57902;49.638;11.070;2023-02-12T03:57:06;100248.22;;;2.32;100.00
70445;BME280;57902;49.638;11.070;2023-02-12T03:59:37;100245.72;;;2.34;100.00
70445;BME280;57902;49.638;11.070;2023-02-12T04:02:04;100251.63;;;2.33;100.00
70445;BME280;57902;49.638;11.070;2023-02-12T04:04:31;100259.47;;;2.39;100.00
70445;BME280;57902;49.638;11.070;2023-02-12T04:06:59;100260.16;;;2.35;100.00
70445;BME280;57902;49.638;11.070;2023-02-12T04:09:27;100262.81;;;2.38;100.00
70445;BME280;57902;49.638;11.070;2023-02-12T04:11:58;100261.00;;;2.34;100.00
70445;BME280;57902;49.638;11.070;2023-02-12T04:14:47;100263.56;;;2.34;100.00
70445;BME280;57902;49.638;11.070;2023-02-12T04:17:27;100262.72;;;2.35;100.00
70445;BME280;57902;49.638;11.070;2023-02-12T04:31:02;100259.38;;;2.36;100.00
70445;BME280;57902;49.638;11.070;2023-02-12T04:33:39;100263.59;;;2.35;100.00
70445;BME280;57902;49.638;11.070;2023-02-12T04:36:16;100261.09;;;2.37;100.00
70445;BME280;57902;49.638;11.070;2023-02-12T04:38:50;100273.13;;;2.41;100.00
70445;BME280;57902;49.638;11.070;2023-02-12T04:41:18;100271.41;;;2.40;100.00
70445;BME280;57902;49.638;11.070;2023-02-12T04:43:45;100274.75;;;2.39;100.00
70445;BME280;57902;49.638;11.070;2023-02-12T04:46:12;100270.59;;;2.41;100.00
70445;BME280;57902;49.638;11.070;2023-02-12T04:48:50;100273.00;;;2.38;100.00
70445;BME280;57902;49.638;11.070;2023-02-12T04:51:17;100279.94;;;2.42;100.00
70445;BME280;57902;49.638;11.070;2023-02-12T04:53:44;100277.41;;;2.42;100.00
70445;BME280;57902;49.638;11.070;2023-02-12T04:56:11;100276.50;;;2.40;100.00
70445;BME280;57902;49.638;11.070;2023-02-12T04:58:39;100281.78;;;2.46;100.00
70445;BME280;57902;49.638;11.070;2023-02-12T05:01:06;100282.59;;;2.45;100.00
70445;BME280;57902;49.638;11.070;2023-02-12T05:03:34;100288.41;;;2.41;100.00
70445;BME280;57902;49.638;11.070;2023-02-12T05:06:05;100287.56;;;2.42;100.00
70445;BME280;57902;49.638;11.070;2023-02-12T05:08:32;100291.75;;;2.40;100.00
70445;BME280;57902;49.638;11.070;2023-02-12T05:11:06;100291.75;;;2.40;100.00
70445;BME280;57902;49.638;11.070;2023-02-12T05:13:34;100290.75;;;2.36;100.00
70445;BME280;57902;49.638;11.070;2023-02-12T05:16:07;100289.84;;;2.34;100.00
70445;BME280;57902;49.638;11.070;2023-02-12T05:18:34;100285.56;;;2.33;100.00
70445;BME280;57902;49.638;11.070;2023-02-12T05:21:03;100291.53;;;2.34;100.00
70445;BME280;57902;49.638;11.070;2023-02-12T05:23:32;100288.13;;;2.33;100.00
70445;BME280;57902;49.638;11.070;2023-02-12T05:26:00;100286.47;;;2.34;100.00
70445;BME280;57902;49.638;11.070;2023-02-12T05:28:28;100286.56;;;2.37;100.00
70445;BME280;57902;49.638;11.070;2023-02-12T05:31:02;100290.81;;;2.38;100.00
70445;BME280;57902;49.638;11.070;2023-02-12T05:33:29;100290.00;;;2.39;100.00
70445;BME280;57902;49.638;11.070;2023-02-12T05:36:10;100291.88;;;2.43;100.00
70445;BME280;57902;49.638;11.070;2023-02-12T05:38:40;100302.03;;;2.43;100.00
70445;BME280;57902;49.638;11.070;2023-02-12T05:41:09;100296.16;;;2.44;100.00
70445;BME280;57902;49.638;11.070;2023-02-12T05:43:36;100308.25;;;2.50;100.00
70445;BME280;57902;49.638;11.070;2023-02-12T05:46:06;100299.50;;;2.43;100.00
70445;BME280;57902;49.638;11.070;2023-02-12T05:48:34;100304.47;;;2.40;100.00
70445;BME280;57902;49.638;11.070;2023-02-12T05:51:07;100307.84;;;2.39;100.00
70445;BME280;57902;49.638;11.070;2023-02-12T05:53:36;100303.63;;;2.39;100.00
70445;BME280;57902;49.638;11.070;2023-02-12T05:58:45;100311.25;;;2.39;100.00
70445;BME280;57902;49.638;11.070;2023-02-12T06:01:20;100315.56;;;2.42;100.00
70445;BME280;57902;49.638;11.070;2023-02-12T06:03:47;100314.72;;;2.41;100.00
70445;BME280;57902;49.638;11.070;2023-02-12T06:06:14;100309.63;;;2.41;100.00
70445;BME280;57902;49.638;11.070;2023-02-12T06:08:40;100313.97;;;2.44;100.00
70445;BME280;57902;49.638;11.070;2023-02-12T06:11:12;100313.13;;;2.45;100.00
70445;BME280;57902;49.638;11.070;2023-02-12T06:13:38;100306.28;;;2.42;100.00
70445;BME280;57902;49.638;11.070;2023-02-12T06:16:05;100302.91;;;2.43;100.00
70445;BME280;57902;49.638;11.070;2023-02-12T06:18:34;100306.28;;;2.42;100.00
70445;BME280;57902;49.638;11.070;2023-02-12T06:21:04;100313.97;;;2.44;100.00
70445;BME280;57902;49.638;11.070;2023-02-12T06:23:31;100320.78;;;2.45;100.00
70445;BME280;57902;49.638;11.070;2023-02-12T06:26:00;100313.91;;;2.42;100.00
70445;BME280;57902;49.638;11.070;2023-02-12T06:28:27;100313.91;;;2.42;100.00
70445;BME280;57902;49.638;11.070;2023-02-12T06:30:53;100317.25;;;2.41;100.00
70445;BME280;57902;49.638;11.070;2023-02-12T06:33:20;100324.09;;;2.42;100.00
70445;BME280;57902;49.638;11.070;2023-02-12T06:35:46;100325.88;;;2.45;100.00
70445;BME280;57902;49.638;11.070;2023-02-12T06:38:13;100325.75;;;2.42;100.00
70445;BME280;57902;49.638;11.070;2023-02-12T06:40:40;100327.41;;;2.40;100.00
70445;BME280;57902;49.638;11.070;2023-02-12T06:43:06;100332.47;;;2.40;100.00
70445;BME280;57902;49.638;11.070;2023-02-12T06:45:33;100330.78;;;2.40;100.00
70445;BME280;57902;49.638;11.070;2023-02-12T06:48:00;100339.31;;;2.41;100.00
70445;BME280;57902;49.638;11.070;2023-02-12T06:50:27;100346.97;;;2.41;100.00
70445;BME280;57902;49.638;11.070;2023-02-12T06:52:54;100347.81;;;2.41;100.00
70445;BME280;57902;49.638;11.070;2023-02-12T06:55:20;100343.56;;;2.42;100.00
70445;BME280;57902;49.638;11.070;2023-02-12T06:57:47;100347.00;;;2.42;100.00
70445;BME280;57902;49.638;11.070;2023-02-12T07:00:13;100354.69;;;2.44;100.00
70445;BME280;57902;49.638;11.070;2023-02-12T07:02:40;100359.78;;;2.44;100.00
70445;BME280;57902;49.638;11.070;2023-02-12T07:05:06;100353.06;;;2.46;100.00
70445;BME280;57902;49.638;11.070;2023-02-12T07:07:33;100363.34;;;2.49;100.00
70445;BME280;57902;49.638;11.070;2023-02-12T07:09:59;100360.88;;;2.51;100.00
70445;BME280;57902;49.638;11.070;2023-02-12T07:12:26;100365.16;;;2.52;100.00
70445;BME280;57902;49.638;11.070;2023-02-12T07:14:52;100369.50;;;2.54;100.00
70445;BME280;57902;49.638;11.070;2023-02-12T07:17:19;100366.13;;;2.55;100.00
70445;BME280;57902;49.638;11.070;2023-02-12T07:19:45;100363.63;;;2.57;100.00
70445;BME280;57902;49.638;11.070;2023-02-12T07:22:12;100366.31;;;2.60;100.00
70445;BME280;57902;49.638;11.070;2023-02-12T07:24:38;100374.00;;;2.61;100.00
70445;BME280;57902;49.638;11.070;2023-02-12T07:27:04;100380.00;;;2.63;100.00
70445;BME280;57902;49.638;11.070;2023-02-12T07:29:31;100372.47;;;2.67;100.00
70445;BME280;57902;49.638;11.070;2023-02-12T07:31:57;100373.41;;;2.69;100.00
70445;BME280;57902;49.638;11.070;2023-02-12T07:34:24;100375.19;;;2.71;100.00
70445;BME280;57902;49.638;11.070;2023-02-12T07:36:50;100378.72;;;2.75;100.00
70445;BME280;57902;49.638;11.070;2023-02-12T07:39:17;100383.22;;;2.82;100.00
70445;BME280;57902;49.638;11.070;2023-02-12T07:41:43;100381.59;;;2.84;100.00
70445;BME280;57902;49.638;11.070;2023-02-12T07:44:11;100379.09;;;2.86;100.00
70445;BME280;57902;49.638;11.070;2023-02-12T07:46:44;100385.22;;;2.91;100.00
70445;BME280;57902;49.638;11.070;2023-02-12T07:49:16;100388.84;;;2.97;100.00
70445;BME280;57902;49.638;11.070;2023-02-12T07:51:43;100382.28;;;3.04;100.00
70445;BME280;57902;49.638;11.070;2023-02-12T07:54:10;100387.66;;;3.12;100.00
70445;BME280;57902;49.638;11.070;2023-02-12T07:56:38;100387.16;;;3.22;100.00
70445;BME280;57902;49.638;11.070;2023-02-12T07:59:08;100389.91;;;3.28;100.00
70445;BME280;57902;49.638;11.070;2023-02-12T08:01:37;100384.13;;;3.34;100.00
70445;BME280;57902;49.638;11.070;2023-02-12T08:04:10;100391.94;;;3.39;100.00
70445;BME280;57902;49.638;11.070;2023-02-12T08:06:41;100391.28;;;3.44;100.00
70445;BME280;57902;49.638;11.070;2023-02-12T08:09:11;100399.03;;;3.47;100.00
70445;BME280;57902;49.638;11.070;2023-02-12T08:11:39;100399.19;;;3.52;100.00
70445;BME280;57902;49.638;11.070;2023-02-12T08:14:07;100404.50;;;3.58;100.00
70445;BME280;57902;49.638;11.070;2023-02-12T08:16:38;100394.44;;;3.63;100.00
70445;BME280;57902;49.638;11.070;2023-02-12T08:19:05;100402.28;;;3.69;100.00
70445;BME280;57902;49.638;11.070;2023-02-12T08:22:03;100397.38;;;3.75;100.00
70445;BME280;57902;49.638;11.070;2023-02-12T08:24:31;100398.47;;;3.82;100.00
70445;BME280;57902;49.638;11.070;2023-02-12T08:26:58;100405.38;;;3.86;100.00
70445;BME280;57902;49.638;11.070;2023-02-12T08:29:28;100407.00;;;3.84;100.00
70445;BME280;57902;49.638;11.070;2023-02-12T08:31:57;100400.22;;;3.84;100.00
70445;BME280;57902;49.638;11.070;2023-02-12T08:34:27;100401.97;;;3.85;100.00
70445;BME280;57902;49.638;11.070;2023-02-12T08:36:54;100387.50;;;3.86;100.00
70445;BME280;57902;49.638;11.070;2023-02-12T08:39:23;100395.84;;;3.80;100.00
70445;BME280;57902;49.638;11.070;2023-02-12T08:41:55;100386.56;;;3.82;100.00
70445;BME280;57902;49.638;11.070;2023-02-12T08:44:22;100396.72;;;3.81;100.00
70445;BME280;57902;49.638;11.070;2023-02-12T08:46:52;100401.09;;;3.85;100.00
70445;BME280;57902;49.638;11.070;2023-02-12T08:49:21;100392.81;;;3.92;100.00
70445;BME280;57902;49.638;11.070;2023-02-12T08:51:50;100391.13;;;3.93;100.00
70445;BME280;57902;49.638;11.070;2023-02-12T08:54:29;100386.88;;;3.93;100.00
70445;BME280;57902;49.638;11.070;2023-02-12T08:56:58;100388.66;;;3.96;100.00
70445;BME280;57902;49.638;11.070;2023-02-12T08:59:26;100382.94;;;4.03;100.00
70445;BME280;57902;49.638;11.070;2023-02-12T09:01:52;100389.09;;;4.10;100.00
70445;BME280;57902;49.638;11.070;2023-02-12T09:04:22;100387.00;;;4.25;100.00
70445;BME280;57902;49.638;11.070;2023-02-12T09:06:49;100393.31;;;4.36;100.00
70445;BME280;57902;49.638;11.070;2023-02-12T09:09:17;100395.25;;;4.45;100.00
70445;BME280;57902;49.638;11.070;2023-02-12T09:11:45;100388.72;;;4.55;100.00
70445;BME280;57902;49.638;11.070;2023-02-12T09:14:14;100391.53;;;4.64;100.00
70445;BME280;57902;49.638;11.070;2023-02-12T09:16:40;100392.66;;;4.74;100.00
70445;BME280;57902;49.638;11.070;2023-02-12T09:19:09;100401.75;;;4.64;100.00
70445;BME280;57902;49.638;11.070;2023-02-12T09:21:36;100401.81;;;4.66;100.00
70445;BME280;57902;49.638;11.070;2023-02-12T09:24:03;100402.91;;;4.76;100.00
70445;BME280;57902;49.638;11.070;2023-02-12T09:26:29;100400.50;;;4.80;100.00
70445;BME280;57902;49.638;11.070;2023-02-12T09:28:57;100409.63;;;5.02;100.00
70445;BME280;57902;49.638;11.070;2023-02-12T09:31:26;100407.84;;;5.00;100.00
70445;BME280;57902;49.638;11.070;2023-02-12T09:33:56;100406.22;;;5.03;100.00
70445;BME280;57902;49.638;11.070;2023-02-12T09:36:23;100413.28;;;5.12;100.00
70445;BME280;57902;49.638;11.070;2023-02-12T09:38:50;100405.00;;;5.21;100.00
70445;BME280;57902;49.638;11.070;2023-02-12T09:47:02;100407.28;;;5.43;100.00
70445;BME280;57902;49.638;11.070;2023-02-12T09:52:25;100407.28;;;5.43;100.00
70445;BME280;57902;49.638;11.070;2023-02-12T09:54:53;100413.31;;;5.46;100.00
70445;BME280;57902;49.638;11.070;2023-02-12T09:57:25;100409.09;;;5.48;100.00
70445;BME280;57902;49.638;11.070;2023-02-12T10:00:02;100403.06;;;5.46;100.00
70445;BME280;57902;49.638;11.070;2023-02-12T10:02:30;100410.84;;;5.50;100.00
70445;BME280;57902;49.638;11.070;2023-02-12T10:04:57;100415.22;;;5.54;100.00
70445;BME280;57902;49.638;11.070;2023-02-12T10:13:26;100411.19;;;5.63;100.00
70445;BME280;57902;49.638;11.070;2023-02-12T10:16:09;100405.34;;;5.68;100.00
70445;BME280;57902;49.638;11.070;2023-02-12T10:18:48;100415.84;;;5.79;100.00
70445;BME280;57902;49.638;11.070;2023-02-12T10:26:23;100417.53;;;5.78;100.00
70445;BME280;57902;49.638;11.070;2023-02-12T10:28:53;100418.19;;;5.70;100.00
70445;BME280;57902;49.638;11.070;2023-02-12T10:31:26;100420.78;;;5.71;100.00
70445;BME280;57902;49.638;11.070;2023-02-12T10:33:55;100416.47;;;5.70;100.00
70445;BME280;57902;49.638;11.070;2023-02-12T10:36:49;100413.84;;;5.67;100.00
70445;BME280;57902;49.638;11.070;2023-02-12T10:39:28;100417.28;;;5.69;100.00
70445;BME280;57902;49.638;11.070;2023-02-12T10:42:01;100422.31;;;5.65;100.00
70445;BME280;57902;49.638;11.070;2023-02-12T10:44:29;100411.97;;;5.60;100.00
70445;BME280;57902;49.638;11.070;2023-02-12T10:46:56;100414.69;;;5.68;100.00
70445;BME280;57902;49.638;11.070;2023-02-12T10:49:23;100414.19;;;5.83;100.00
70445;BME280;57902;49.638;11.070;2023-02-12T10:52:14;100409.16;;;5.86;100.00
70445;BME280;57902;49.638;11.070;2023-02-12T10:54:46;100402.53;;;5.94;100.00
70445;BME280;57902;49.638;11.070;2023-02-12T10:57:26;100403.63;;;6.02;100.00
70445;BME280;57902;49.638;11.070;2023-02-12T10:59:55;100406.22;;;6.04;100.00
70445;BME280;57902;49.638;11.070;2023-02-12T11:02:26;100408.47;;;5.93;100.00
70445;BME280;57902;49.638;11.070;2023-02-12T11:04:53;100396.09;;;6.10;100.00
70445;BME280;57902;49.638;11.070;2023-02-12T11:07:21;100404.06;;;6.24;100.00
70445;BME280;57902;49.638;11.070;2023-02-12T11:09:50;100396.09;;;6.10;100.00
70445;BME280;57902;49.638;11.070;2023-02-12T11:14:49;100394.69;;;6.23;100.00
70445;BME280;57902;49.638;11.070;2023-02-12T11:17:26;100391.88;;;6.12;100.00
70445;BME280;57902;49.638;11.070;2023-02-12T11:20:18;100394.31;;;6.07;100.00
70445;BME280;57902;49.638;11.070;2023-02-12T11:22:57;100390.94;;;6.08;100.00
70445;BME280;57902;49.638;11.070;2023-02-12T11:25:30;100397.13;;;6.17;100.00
70445;BME280;57902;49.638;11.070;2023-02-12T11:28:03;100393.81;;;6.22;100.00
70445;BME280;57902;49.638;11.070;2023-02-12T11:30:30;100393.59;;;6.13;100.00
70445;BME280;57902;49.638;11.070;2023-02-12T11:33:21;100397.00;;;6.12;100.00
70445;BME280;57902;49.638;11.070;2023-02-12T11:35:53;100394.41;;;6.10;100.00
70445;BME280;57902;49.638;11.070;2023-02-12T11:38:29;100395.75;;;5.96;100.00
70445;BME280;57902;49.638;11.070;2023-02-12T11:40:59;100395.13;;;6.05;100.00
70445;BME280;57902;49.638;11.070;2023-02-12T11:43:29;100394.72;;;5.88;100.00
70445;BME280;57902;49.638;11.070;2023-02-12T11:45:59;100393.75;;;5.84;100.00
70445;BME280;57902;49.638;11.070;2023-02-12T11:48:36;100391.59;;;6.00;100.00
70445;BME280;57902;49.638;11.070;2023-02-12T11:51:06;100387.63;;;6.12;100.00
70445;BME280;57902;49.638;11.070;2023-02-12T11:53:39;100388.81;;;6.27;100.00
70445;BME280;57902;49.638;11.070;2023-02-12T11:56:11;100378.00;;;6.40;100.00
70445;BME280;57902;49.638;11.070;2023-02-12T11:58:38;100377.41;;;6.54;100.00
70445;BME280;57902;49.638;11.070;2023-02-12T12:03:53;100379.63;;;6.81;100.00
70445;BME280;57902;49.638;11.070;2023-02-12T12:06:47;100380.53;;;6.81;100.00
70445;BME280;57902;49.638;11.070;2023-02-12T12:09:26;100383.75;;;6.71;100.00
70445;BME280;57902;49.638;11.070;2023-02-12T12:15:02;100387.34;;;6.82;100.00
70445;BME280;57902;49.638;11.070;2023-02-12T12:18:01;100381.22;;;6.74;100.00
70445;BME280;57902;49.638;11.070;2023-02-12T12:20:55;100381.09;;;6.67;100.00
70445;BME280;57902;49.638;11.070;2023-02-12T12:23:46;100378.47;;;6.65;100.00
70445;BME280;57902;49.638;11.070;2023-02-12T12:26:27;100372.22;;;6.51;100.00
70445;BME280;57902;49.638;11.070;2023-02-12T12:29:12;100388.50;;;6.54;100.00
70445;BME280;57902;49.638;11.070;2023-02-12T12:31:45;100385.13;;;6.55;100.00
70445;BME280;57902;49.638;11.070;2023-02-12T12:34:21;100373.03;;;6.50;100.00
70445;BME280;57902;49.638;11.070;2023-02-12T12:42:42;100382.53;;;6.54;100.00
70445;BME280;57902;49.638;11.070;2023-02-12T12:48:54;100378.06;;;6.45;100.00
70445;BME280;57902;49.638;11.070;2023-02-12T12:53:57;100379.84;;;6.47;100.00
70445;BME280;57902;49.638;11.070;2023-02-12T12:56:57;100381.44;;;6.42;100.00
70445;BME280;57902;49.638;11.070;2023-02-12T12:59:49;100378.94;;;6.45;100.00
70445;BME280;57902;49.638;11.070;2023-02-12T13:02:42;100385.03;;;6.51;100.00
70445;BME280;57902;49.638;11.070;2023-02-12T13:08:42;100376.38;;;6.45;100.00
70445;BME280;57902;49.638;11.070;2023-02-12T13:13:45;100372.97;;;6.46;100.00
70445;BME280;57902;49.638;11.070;2023-02-12T13:16:19;100373.72;;;6.41;100.00
70445;BME280;57902;49.638;11.070;2023-02-12T13:19:14;100374.50;;;6.38;100.00
70445;BME280;57902;49.638;11.070;2023-02-12T13:21:55;100376.31;;;6.42;100.00
70445;BME280;57902;49.638;11.070;2023-02-12T13:24:49;100374.81;;;6.52;100.00
70445;BME280;57902;49.638;11.070;2023-02-12T13:27:20;100373.03;;;6.50;100.00
70445;BME280;57902;49.638;11.070;2023-02-12T13:30:58;100371.19;;;6.42;100.00
70445;BME280;57902;49.638;11.070;2023-02-12T13:35:32;100372.22;;;6.51;100.00
70445;BME280;57902;49.638;11.070;2023-02-12T13:38:01;100373.03;;;6.50;100.00
70445;BME280;57902;49.638;11.070;2023-02-12T13:40:29;100368.56;;;6.39;100.00
70445;BME280;57902;49.638;11.070;2023-02-12T13:43:06;100366.78;;;6.37;100.00
70445;BME280;57902;49.638;11.070;2023-02-12T13:59:37;100377.50;;;6.58;100.00
70445;BME280;57902;49.638;11.070;2023-02-12T14:07:20;100366.00;;;6.39;100.00
70445;BME280;57902;49.638;11.070;2023-02-12T14:14:46;100363.59;;;6.47;100.00
70445;BME280;57902;49.638;11.070;2023-02-12T14:27:43;100354.56;;;6.66;100.00
70445;BME280;57902;49.638;11.070;2023-02-12T14:35:39;100351.91;;;6.60;100.00
70445;BME280;57902;49.638;11.070;2023-02-12T14:40:51;100344.31;;;6.66;100.00
70445;BME280;57902;49.638;11.070;2023-02-12T14:45:56;100346.84;;;6.64;100.00
70445;BME280;57902;49.638;11.070;2023-02-12T14:48:55;100356.19;;;6.61;100.00
70445;BME280;57902;49.638;11.070;2023-02-12T14:51:50;100351.97;;;6.64;100.00
70445;BME280;57902;49.638;11.070;2023-02-12T14:54:31;100336.59;;;6.64;100.00
70445;BME280;57902;49.638;11.070;2023-02-12T14:57:04;100349.44;;;6.66;100.00
70445;BME280;57902;49.638;11.070;2023-02-12T14:59:37;100340.88;;;6.64;100.00
70445;BME280;57902;49.638;11.070;2023-02-12T15:02:07;100339.13;;;6.61;100.00
70445;BME280;57902;49.638;11.070;2023-02-12T15:04:40;100335.56;;;6.55;100.00
70445;BME280;57902;49.638;11.070;2023-02-12T15:07:13;100331.31;;;6.55;100.00
70445;BME280;57902;49.638;11.070;2023-02-12T15:09:51;100328.75;;;6.55;100.00
70445;BME280;57902;49.638;11.070;2023-02-12T15:12:31;100332.00;;;6.46;100.00
70445;BME280;57902;49.638;11.070;2023-02-12T15:15:34;100331.00;;;6.40;100.00
70445;BME280;57902;49.638;11.070;2023-02-12T15:18:18;100332.63;;;6.36;100.00